Alagoinha, Brazil
Current Conditions -  °F | °C
As of 12:00 AM on Saturday 20 Dec 2014 (Local Time) from SBMO Reporting Station
Few Clouds Few Clouds  
Wind Chill: 73°   Ceiling: Unl
Heat Index: 73°   Visibility: 6mi
Dew Point: 72°   Wind: 6mph
Humidity: 94%   Direction: 50°NE
Pressure: 29.94"   Gusts: NA
Location:  8.47°S, 36.78°W
Report Text: SBMO 200300Z 05005KT 9999 FEW020 23/22 Q1014
Loading
Personal Weather Stations






























Interactive Weather Map New forecast layout! Learn more

10-Day Weather Forecast

Advertisements
Track Severe Weather on mobile